sensor_id;sensor_type;location;lat;lon;timestamp;temperature;humidity
14057;DHT22;7103;54.300;10.180;2023-02-15T00:01:11;3.90;1.00
14057;DHT22;7103;54.300;10.180;2023-02-15T00:03:38;4.00;1.00
14057;DHT22;7103;54.300;10.180;2023-02-15T00:06:05;4.00;1.00
14057;DHT22;7103;54.300;10.180;2023-02-15T00:08:32;4.10;1.00
14057;DHT22;7103;54.300;10.180;2023-02-15T00:13:32;4.00;1.00
14057;DHT22;7103;54.300;10.180;2023-02-15T00:16:03;3.90;1.00
14057;DHT22;7103;54.300;10.180;2023-02-15T00:18:30;3.90;1.00
14057;DHT22;7103;54.300;10.180;2023-02-15T00:20:57;4.00;1.00
14057;DHT22;7103;54.300;10.180;2023-02-15T00:23:26;3.90;1.00
14057;DHT22;7103;54.300;10.180;2023-02-15T00:26:06;3.90;1.00
14057;DHT22;7103;54.300;10.180;2023-02-15T00:28:34;3.90;1.00
14057;DHT22;7103;54.300;10.180;2023-02-15T00:31:09;4.00;1.00
14057;DHT22;7103;54.300;10.180;2023-02-15T00:33:37;3.80;5.30
14057;DHT22;7103;54.300;10.180;2023-02-15T00:36:06;3.90;5.40
14057;DHT22;7103;54.300;10.180;2023-02-15T00:38:34;4.00;15.90
14057;DHT22;7103;54.300;10.180;2023-02-15T00:41:03;3.90;19.70
14057;DHT22;7103;54.300;10.180;2023-02-15T00:43:31;4.00;27.80
14057;DHT22;7103;54.300;10.180;2023-02-15T00:45:59;4.00;32.80
14057;DHT22;7103;54.300;10.180;2023-02-15T00:48:27;3.90;29.00
14057;DHT22;7103;54.300;10.180;2023-02-15T00:50:59;3.90;35.80
14057;DHT22;7103;54.300;10.180;2023-02-15T00:53:26;3.80;38.10
14057;DHT22;7103;54.300;10.180;2023-02-15T00:55:53;3.70;35.60
14057;DHT22;7103;54.300;10.180;2023-02-15T00:58:20;3.60;36.30
14057;DHT22;7103;54.300;10.180;2023-02-15T01:00:48;3.70;47.40
14057;DHT22;7103;54.300;10.180;2023-02-15T01:03:17;3.60;50.60
14057;DHT22;7103;54.300;10.180;2023-02-15T01:05:45;3.60;63.60
14057;DHT22;7103;54.300;10.180;2023-02-15T01:08:13;3.60;61.30
14057;DHT22;7103;54.300;10.180;2023-02-15T01:10:39;3.60;74.20
14057;DHT22;7103;54.300;10.180;2023-02-15T01:13:07;3.70;92.50
14057;DHT22;7103;54.300;10.180;2023-02-15T01:15:35;3.70;97.50
14057;DHT22;7103;54.300;10.180;2023-02-15T01:18:02;3.80;99.90
14057;DHT22;7103;54.300;10.180;2023-02-15T01:20:30;3.70;99.90
14057;DHT22;7103;54.300;10.180;2023-02-15T01:22:57;3.60;98.70
14057;DHT22;7103;54.300;10.180;2023-02-15T01:25:24;3.50;99.90
14057;DHT22;7103;54.300;10.180;2023-02-15T01:27:51;3.40;99.90
14057;DHT22;7103;54.300;10.180;2023-02-15T01:30:18;3.40;99.90
14057;DHT22;7103;54.300;10.180;2023-02-15T01:32:45;3.40;99.90
14057;DHT22;7103;54.300;10.180;2023-02-15T01:35:12;3.30;99.90
14057;DHT22;7103;54.300;10.180;2023-02-15T01:37:39;3.20;99.90
14057;DHT22;7103;54.300;10.180;2023-02-15T01:40:08;3.20;99.90
14057;DHT22;7103;54.300;10.180;2023-02-15T01:42:35;3.20;99.90
14057;DHT22;7103;54.300;10.180;2023-02-15T01:47:54;3.20;99.90
14057;DHT22;7103;54.300;10.180;2023-02-15T01:53:17;3.00;99.90
14057;DHT22;7103;54.300;10.180;2023-02-15T01:55:57;3.00;99.90
14057;DHT22;7103;54.300;10.180;2023-02-15T01:58:27;3.10;99.90
14057;DHT22;7103;54.300;10.180;2023-02-15T02:00:58;3.10;99.90
14057;DHT22;7103;54.300;10.180;2023-02-15T02:06:23;3.20;99.90
14057;DHT22;7103;54.300;10.180;2023-02-15T02:08:53;3.20;99.90
14057;DHT22;7103;54.300;10.180;2023-02-15T02:11:21;3.30;99.90
14057;DHT22;7103;54.300;10.180;2023-02-15T02:13:48;3.30;99.90
14057;DHT22;7103;54.300;10.180;2023-02-15T02:16:28;3.20;99.90
14057;DHT22;7103;54.300;10.180;2023-02-15T02:36:20;3.40;99.90
14057;DHT22;7103;54.300;10.180;2023-02-15T02:41:32;3.30;99.90
14057;DHT22;7103;54.300;10.180;2023-02-15T02:44:26;3.30;99.90
14057;DHT22;7103;54.300;10.180;2023-02-15T02:47:05;3.20;99.90
14057;DHT22;7103;54.300;10.180;2023-02-15T02:49:36;3.30;99.90
14057;DHT22;7103;54.300;10.180;2023-02-15T02:52:06;3.10;99.90
14057;DHT22;7103;54.300;10.180;2023-02-15T02:54:34;2.90;99.90
14057;DHT22;7103;54.300;10.180;2023-02-15T02:57:05;2.90;99.90
14057;DHT22;7103;54.300;10.180;2023-02-15T02:59:40;2.80;99.90
14057;DHT22;7103;54.300;10.180;2023-02-15T03:02:15;2.90;99.90
14057;DHT22;7103;54.300;10.180;2023-02-15T03:04:49;2.80;99.90
14057;DHT22;7103;54.300;10.180;2023-02-15T03:07:26;2.80;99.90
14057;DHT22;7103;54.300;10.180;2023-02-15T03:09:58;2.70;99.90
14057;DHT22;7103;54.300;10.180;2023-02-15T03:12:32;2.70;99.90
14057;DHT22;7103;54.300;10.180;2023-02-15T03:17:35;2.50;99.90
14057;DHT22;7103;54.300;10.180;2023-02-15T03:20:08;2.50;99.90
14057;DHT22;7103;54.300;10.180;2023-02-15T03:22:40;2.50;99.90
14057;DHT22;7103;54.300;10.180;2023-02-15T03:25:21;2.40;99.90
14057;DHT22;7103;54.300;10.180;2023-02-15T03:27:55;2.30;99.90
14057;DHT22;7103;54.300;10.180;2023-02-15T03:30:22;2.40;99.90
14057;DHT22;7103;54.300;10.180;2023-02-15T03:32:50;2.40;99.90
14057;DHT22;7103;54.300;10.180;2023-02-15T03:35:22;2.40;99.90
14057;DHT22;7103;54.300;10.180;2023-02-15T03:37:55;2.30;99.90
14057;DHT22;7103;54.300;10.180;2023-02-15T03:40:37;2.30;99.90
14057;DHT22;7103;54.300;10.180;2023-02-15T03:46:29;2.20;99.90
14057;DHT22;7103;54.300;10.180;2023-02-15T03:49:10;2.20;99.90
14057;DHT22;7103;54.300;10.180;2023-02-15T03:51:40;2.10;99.90
14057;DHT22;7103;54.300;10.180;2023-02-15T03:54:12;2.10;99.90
14057;DHT22;7103;54.300;10.180;2023-02-15T03:57:01;2.10;99.90
14057;DHT22;7103;54.300;10.180;2023-02-15T03:59:47;2.20;99.90
14057;DHT22;7103;54.300;10.180;2023-02-15T04:05:26;2.10;99.90
14057;DHT22;7103;54.300;10.180;2023-02-15T04:07:53;2.10;99.90
14057;DHT22;7103;54.300;10.180;2023-02-15T04:10:20;2.10;99.90
14057;DHT22;7103;54.300;10.180;2023-02-15T04:13:05;2.10;99.90
14057;DHT22;7103;54.300;10.180;2023-02-15T04:15:32;2.20;99.90
14057;DHT22;7103;54.300;10.180;2023-02-15T04:18:17;2.10;99.90
14057;DHT22;7103;54.300;10.180;2023-02-15T04:20:45;2.10;99.90
14057;DHT22;7103;54.300;10.180;2023-02-15T04:23:31;2.10;99.90
14057;DHT22;7103;54.300;10.180;2023-02-15T04:26:16;2.20;99.90
14057;DHT22;7103;54.300;10.180;2023-02-15T04:28:43;2.10;99.90
14057;DHT22;7103;54.300;10.180;2023-02-15T04:31:10;2.10;99.90
14057;DHT22;7103;54.300;10.180;2023-02-15T04:33:37;2.10;99.90
14057;DHT22;7103;54.300;10.180;2023-02-15T04:36:04;2.00;99.90
14057;DHT22;7103;54.300;10.180;2023-02-15T04:38:31;2.00;99.90
14057;DHT22;7103;54.300;10.180;2023-02-15T04:40:58;2.00;99.90
14057;DHT22;7103;54.300;10.180;2023-02-15T04:43:25;2.00;99.90
14057;DHT22;7103;54.300;10.180;2023-02-15T04:45:51;2.00;99.90
14057;DHT22;7103;54.300;10.180;2023-02-15T04:48:18;1.90;99.90
14057;DHT22;7103;54.300;10.180;2023-02-15T04:50:45;1.90;99.90
14057;DHT22;7103;54.300;10.180;2023-02-15T04:53:12;2.00;99.90
14057;DHT22;7103;54.300;10.180;2023-02-15T04:55:39;1.90;99.90
14057;DHT22;7103;54.300;10.180;2023-02-15T04:58:06;1.90;99.90
14057;DHT22;7103;54.300;10.180;2023-02-15T05:00:33;1.90;99.90
14057;DHT22;7103;54.300;10.180;2023-02-15T05:03:00;2.00;99.90
14057;DHT22;7103;54.300;10.180;2023-02-15T05:05:26;1.90;99.90
14057;DHT22;7103;54.300;10.180;2023-02-15T05:07:53;1.90;99.90
14057;DHT22;7103;54.300;10.180;2023-02-15T05:10:20;1.90;99.90
14057;DHT22;7103;54.300;10.180;2023-02-15T05:12:47;1.90;99.90
14057;DHT22;7103;54.300;10.180;2023-02-15T05:15:14;2.00;99.90
14057;DHT22;7103;54.300;10.180;2023-02-15T05:17:41;1.90;99.90
14057;DHT22;7103;54.300;10.180;2023-02-15T05:20:08;1.90;99.90
14057;DHT22;7103;54.300;10.180;2023-02-15T05:22:35;1.90;99.90
14057;DHT22;7103;54.300;10.180;2023-02-15T05:25:02;1.90;99.90
14057;DHT22;7103;54.300;10.180;2023-02-15T05:27:47;1.90;99.90
14057;DHT22;7103;54.300;10.180;2023-02-15T05:30:33;1.90;99.90
14057;DHT22;7103;54.300;10.180;2023-02-15T05:33:00;1.90;99.90
14057;DHT22;7103;54.300;10.180;2023-02-15T05:35:27;1.90;99.90
14057;DHT22;7103;54.300;10.180;2023-02-15T05:37:54;2.00;99.90
14057;DHT22;7103;54.300;10.180;2023-02-15T05:40:20;1.90;99.90
14057;DHT22;7103;54.300;10.180;2023-02-15T05:42:47;1.90;99.90
14057;DHT22;7103;54.300;10.180;2023-02-15T05:45:14;1.80;98.30
14057;DHT22;7103;54.300;10.180;2023-02-15T05:47:42;1.80;97.40
14057;DHT22;7103;54.300;10.180;2023-02-15T05:50:09;1.80;97.20
14057;DHT22;7103;54.300;10.180;2023-02-15T05:52:37;1.80;99.90
14057;DHT22;7103;54.300;10.180;2023-02-15T05:55:05;1.80;99.90
14057;DHT22;7103;54.300;10.180;2023-02-15T05:57:32;1.70;99.90
14057;DHT22;7103;54.300;10.180;2023-02-15T05:59:58;1.70;99.20
14057;DHT22;7103;54.300;10.180;2023-02-15T06:02:25;1.80;99.90
14057;DHT22;7103;54.300;10.180;2023-02-15T06:04:52;1.80;99.90
14057;DHT22;7103;54.300;10.180;2023-02-15T06:07:19;1.80;99.90
14057;DHT22;7103;54.300;10.180;2023-02-15T06:09:46;1.70;99.90
14057;DHT22;7103;54.300;10.180;2023-02-15T06:12:13;1.70;99.90
14057;DHT22;7103;54.300;10.180;2023-02-15T06:14:40;1.70;99.90
14057;DHT22;7103;54.300;10.180;2023-02-15T06:17:07;1.70;99.90
14057;DHT22;7103;54.300;10.180;2023-02-15T06:19:34;1.80;99.90
14057;DHT22;7103;54.300;10.180;2023-02-15T06:22:01;1.80;99.90
14057;DHT22;7103;54.300;10.180;2023-02-15T06:24:27;1.90;99.90
14057;DHT22;7103;54.300;10.180;2023-02-15T06:26:54;1.90;99.90
14057;DHT22;7103;54.300;10.180;2023-02-15T06:29:21;1.90;99.90
14057;DHT22;7103;54.300;10.180;2023-02-15T06:31:48;1.80;99.90
14057;DHT22;7103;54.300;10.180;2023-02-15T06:34:15;1.80;99.90
14057;DHT22;7103;54.300;10.180;2023-02-15T06:36:42;1.80;99.90
14057;DHT22;7103;54.300;10.180;2023-02-15T06:39:09;1.70;96.00
14057;DHT22;7103;54.300;10.180;2023-02-15T06:41:36;1.80;99.90
14057;DHT22;7103;54.300;10.180;2023-02-15T06:44:03;1.80;99.00
14057;DHT22;7103;54.300;10.180;2023-02-15T06:46:30;1.80;97.30
14057;DHT22;7103;54.300;10.180;2023-02-15T06:48:57;1.80;98.90
14057;DHT22;7103;54.300;10.180;2023-02-15T06:51:24;1.80;99.00
14057;DHT22;7103;54.300;10.180;2023-02-15T06:53:51;1.90;99.30
14057;DHT22;7103;54.300;10.180;2023-02-15T06:56:18;1.80;92.80
14057;DHT22;7103;54.300;10.180;2023-02-15T06:58:45;1.80;94.90
14057;DHT22;7103;54.300;10.180;2023-02-15T07:01:12;1.80;87.50
14057;DHT22;7103;54.300;10.180;2023-02-15T07:03:39;1.80;84.50
14057;DHT22;7103;54.300;10.180;2023-02-15T07:06:06;1.90;91.30
14057;DHT22;7103;54.300;10.180;2023-02-15T07:08:35;1.90;82.70
14057;DHT22;7103;54.300;10.180;2023-02-15T07:11:06;1.80;77.60
14057;DHT22;7103;54.300;10.180;2023-02-15T07:13:51;1.80;75.80
14057;DHT22;7103;54.300;10.180;2023-02-15T07:16:21;2.00;87.60
14057;DHT22;7103;54.300;10.180;2023-02-15T07:18:48;2.00;91.40
14057;DHT22;7103;54.300;10.180;2023-02-15T07:21:15;2.00;71.30
14057;DHT22;7103;54.300;10.180;2023-02-15T07:23:42;1.90;45.80
14057;DHT22;7103;54.300;10.180;2023-02-15T07:26:09;1.90;36.50
14057;DHT22;7103;54.300;10.180;2023-02-15T07:28:36;1.90;40.40
14057;DHT22;7103;54.300;10.180;2023-02-15T07:31:04;1.90;37.10
14057;DHT22;7103;54.300;10.180;2023-02-15T07:33:31;2.00;57.90
14057;DHT22;7103;54.300;10.180;2023-02-15T07:36:01;2.10;59.80
14057;DHT22;7103;54.300;10.180;2023-02-15T07:38:34;2.10;42.50
14057;DHT22;7103;54.300;10.180;2023-02-15T07:41:03;2.00;33.30
14057;DHT22;7103;54.300;10.180;2023-02-15T07:43:32;2.00;21.60
14057;DHT22;7103;54.300;10.180;2023-02-15T07:46:00;2.00;17.20
14057;DHT22;7103;54.300;10.180;2023-02-15T07:48:28;2.00;10.40
14057;DHT22;7103;54.300;10.180;2023-02-15T07:51:02;2.00;1.90
14057;DHT22;7103;54.300;10.180;2023-02-15T07:53:30;2.00;1.00
14057;DHT22;7103;54.300;10.180;2023-02-15T07:56:05;2.10;1.90
14057;DHT22;7103;54.300;10.180;2023-02-15T07:58:33;2.10;3.30
14057;DHT22;7103;54.300;10.180;2023-02-15T08:03:47;2.20;11.60
14057;DHT22;7103;54.300;10.180;2023-02-15T08:06:15;2.40;4.30
14057;DHT22;7103;54.300;10.180;2023-02-15T08:08:42;2.20;3.80
14057;DHT22;7103;54.300;10.180;2023-02-15T08:14:20;2.30;6.30
14057;DHT22;7103;54.300;10.180;2023-02-15T08:16:52;2.30;3.20
14057;DHT22;7103;54.300;10.180;2023-02-15T08:19:20;2.30;2.20
14057;DHT22;7103;54.300;10.180;2023-02-15T08:21:52;2.30;1.00
14057;DHT22;7103;54.300;10.180;2023-02-15T08:24:21;2.30;1.00
14057;DHT22;7103;54.300;10.180;2023-02-15T08:26:49;2.30;1.00
14057;DHT22;7103;54.300;10.180;2023-02-15T08:29:19;2.40;3.60
14057;DHT22;7103;54.300;10.180;2023-02-15T08:31:48;2.50;5.10
14057;DHT22;7103;54.300;10.180;2023-02-15T08:34:18;2.50;6.30
14057;DHT22;7103;54.300;10.180;2023-02-15T08:36:45;2.70;10.90
14057;DHT22;7103;54.300;10.180;2023-02-15T08:39:13;2.70;3.60
14057;DHT22;7103;54.300;10.180;2023-02-15T08:41:46;2.80;1.00
14057;DHT22;7103;54.300;10.180;2023-02-15T08:44:15;2.70;1.00
14057;DHT22;7103;54.300;10.180;2023-02-15T08:46:44;2.70;1.00
14057;DHT22;7103;54.300;10.180;2023-02-15T08:49:14;2.60;1.00
14057;DHT22;7103;54.300;10.180;2023-02-15T08:51:41;2.70;1.00
14057;DHT22;7103;54.300;10.180;2023-02-15T08:54:12;2.80;1.00
14057;DHT22;7103;54.300;10.180;2023-02-15T08:56:41;2.90;1.00
14057;DHT22;7103;54.300;10.180;2023-02-15T09:03:08;3.00;1.00
14057;DHT22;7103;54.300;10.180;2023-02-15T09:05:35;3.10;1.00
14057;DHT22;7103;54.300;10.180;2023-02-15T09:08:01;3.10;1.00
14057;DHT22;7103;54.300;10.180;2023-02-15T09:10:28;3.20;1.00
14057;DHT22;7103;54.300;10.180;2023-02-15T09:12:55;3.30;1.00
14057;DHT22;7103;54.300;10.180;2023-02-15T09:15:22;3.40;1.00
14057;DHT22;7103;54.300;10.180;2023-02-15T09:17:49;3.50;1.00
14057;DHT22;7103;54.300;10.180;2023-02-15T09:20:16;3.60;1.00
14057;DHT22;7103;54.300;10.180;2023-02-15T09:22:43;3.60;1.00
14057;DHT22;7103;54.300;10.180;2023-02-15T09:25:09;3.60;1.00
14057;DHT22;7103;54.300;10.180;2023-02-15T09:27:36;3.50;1.00
14057;DHT22;7103;54.300;10.180;2023-02-15T09:30:04;3.60;1.00
14057;DHT22;7103;54.300;10.180;2023-02-15T09:32:32;3.70;1.00
14057;DHT22;7103;54.300;10.180;2023-02-15T09:34:58;3.60;1.00
14057;DHT22;7103;54.300;10.180;2023-02-15T09:37:25;3.70;1.00
14057;DHT22;7103;54.300;10.180;2023-02-15T09:39:52;3.60;1.00
14057;DHT22;7103;54.300;10.180;2023-02-15T09:42:40;3.60;1.00
14057;DHT22;7103;54.300;10.180;2023-02-15T09:45:26;3.70;1.00
14057;DHT22;7103;54.300;10.180;2023-02-15T09:48:29;3.70;1.00
14057;DHT22;7103;54.300;10.180;2023-02-15T09:51:47;3.70;1.00
14057;DHT22;7103;54.300;10.180;2023-02-15T09:56:55;3.80;1.00
14057;DHT22;7103;54.300;10.180;2023-02-15T09:59:49;3.90;1.00
14057;DHT22;7103;54.300;10.180;2023-02-15T10:05:11;4.00;1.00
14057;DHT22;7103;54.300;10.180;2023-02-15T10:10:44;4.20;1.00
14057;DHT22;7103;54.300;10.180;2023-02-15T10:13:36;4.20;1.00
14057;DHT22;7103;54.300;10.180;2023-02-15T10:21:41;4.30;1.00
14057;DHT22;7103;54.300;10.180;2023-02-15T10:26:54;4.40;1.00
14057;DHT22;7103;54.300;10.180;2023-02-15T10:29:36;4.50;1.00
14057;DHT22;7103;54.300;10.180;2023-02-15T10:35:11;4.50;1.00
14057;DHT22;7103;54.300;10.180;2023-02-15T10:38:06;4.50;1.00
14057;DHT22;7103;54.300;10.180;2023-02-15T10:51:44;4.90;1.00
14057;DHT22;7103;54.300;10.180;2023-02-15T10:54:31;5.00;1.00
14057;DHT22;7103;54.300;10.180;2023-02-15T10:57:04;5.10;1.00
14057;DHT22;7103;54.300;10.180;2023-02-15T10:59:50;5.20;1.00
14057;DHT22;7103;54.300;10.180;2023-02-15T11:08:10;5.30;1.00
14057;DHT22;7103;54.300;10.180;2023-02-15T11:10:54;5.50;1.00
14057;DHT22;7103;54.300;10.180;2023-02-15T11:13:24;5.30;1.00
14057;DHT22;7103;54.300;10.180;2023-02-15T11:16:04;5.40;1.00
14057;DHT22;7103;54.300;10.180;2023-02-15T11:19:11;5.40;1.00
14057;DHT22;7103;54.300;10.180;2023-02-15T11:21:45;5.40;1.00
14057;DHT22;7103;54.300;10.180;2023-02-15T11:24:18;5.50;1.00
14057;DHT22;7103;54.300;10.180;2023-02-15T11:29:15;5.60;1.00
14057;DHT22;7103;54.300;10.180;2023-02-15T11:31:47;5.70;1.00
14057;DHT22;7103;54.300;10.180;2023-02-15T11:34:31;5.80;1.00
14057;DHT22;7103;54.300;10.180;2023-02-15T11:37:08;5.80;1.00
14057;DHT22;7103;54.300;10.180;2023-02-15T11:39:37;5.90;1.00
14057;DHT22;7103;54.300;10.180;2023-02-15T11:42:16;5.90;1.00
14057;DHT22;7103;54.300;10.180;2023-02-15T11:45:19;6.00;1.00
14057;DHT22;7103;54.300;10.180;2023-02-15T11:47:48;6.00;1.00
14057;DHT22;7103;54.300;10.180;2023-02-15T11:50:17;5.90;1.00
14057;DHT22;7103;54.300;10.180;2023-02-15T11:52:54;6.00;1.00
14057;DHT22;7103;54.300;10.180;2023-02-15T11:55:23;6.10;1.00
14057;DHT22;7103;54.300;10.180;2023-02-15T12:07:34;6.10;1.00
14057;DHT22;7103;54.300;10.180;2023-02-15T12:12:44;6.20;1.00
14057;DHT22;7103;54.300;10.180;2023-02-15T12:15:12;6.20;1.00
14057;DHT22;7103;54.300;10.180;2023-02-15T12:17:48;6.20;1.00
14057;DHT22;7103;54.300;10.180;2023-02-15T12:22:51;6.20;1.00
14057;DHT22;7103;54.300;10.180;2023-02-15T12:25:37;6.40;1.00
14057;DHT22;7103;54.300;10.180;2023-02-15T12:30:48;6.40;1.00
14057;DHT22;7103;54.300;10.180;2023-02-15T12:33:34;6.40;1.00
14057;DHT22;7103;54.300;10.180;2023-02-15T12:38:38;6.50;1.00
14057;DHT22;7103;54.300;10.180;2023-02-15T12:41:24;6.50;1.00
14057;DHT22;7103;54.300;10.180;2023-02-15T12:44:19;6.50;1.00
14057;DHT22;7103;54.300;10.180;2023-02-15T12:49:24;6.60;1.00
14057;DHT22;7103;54.300;10.180;2023-02-15T12:51:53;6.60;1.00
14057;DHT22;7103;54.300;10.180;2023-02-15T12:57:22;6.60;1.00
14057;DHT22;7103;54.300;10.180;2023-02-15T13:00:12;6.60;1.00
14057;DHT22;7103;54.300;10.180;2023-02-15T13:02:53;6.60;1.00
14057;DHT22;7103;54.300;10.180;2023-02-15T13:05:32;6.60;1.00
14057;DHT22;7103;54.300;10.180;2023-02-15T13:08:17;6.70;1.00
14057;DHT22;7103;54.300;10.180;2023-02-15T13:10:56;6.60;1.00
14057;DHT22;7103;54.300;10.180;2023-02-15T13:13:59;6.50;1.00
14057;DHT22;7103;54.300;10.180;2023-02-15T13:16:39;6.50;1.00
14057;DHT22;7103;54.300;10.180;2023-02-15T13:19:15;6.60;1.00
14057;DHT22;7103;54.300;10.180;2023-02-15T13:21:53;6.50;1.00
14057;DHT22;7103;54.300;10.180;2023-02-15T13:24:46;6.60;1.00
14057;DHT22;7103;54.300;10.180;2023-02-15T13:27:20;6.60;1.00
14057;DHT22;7103;54.300;10.180;2023-02-15T13:29:58;6.80;1.00
14057;DHT22;7103;54.300;10.180;2023-02-15T13:34:58;6.70;1.00
14057;DHT22;7103;54.300;10.180;2023-02-15T13:40:03;6.70;1.00
14057;DHT22;7103;54.300;10.180;2023-02-15T13:42:40;6.90;1.00
14057;DHT22;7103;54.300;10.180;2023-02-15T13:53:36;6.70;1.00
14057;DHT22;7103;54.300;10.180;2023-02-15T13:59:19;6.70;1.00
14057;DHT22;7103;54.300;10.180;2023-02-15T14:05:41;6.80;1.00
14057;DHT22;7103;54.300;10.180;2023-02-15T14:11:15;6.70;1.00
14057;DHT22;7103;54.300;10.180;2023-02-15T14:19:46;6.60;1.00
14057;DHT22;7103;54.300;10.180;2023-02-15T14:25:17;6.60;1.00
14057;DHT22;7103;54.300;10.180;2023-02-15T14:30:20;6.60;1.00
14057;DHT22;7103;54.300;10.180;2023-02-15T14:32:51;6.70;1.00
14057;DHT22;7103;54.300;10.180;2023-02-15T14:35:22;6.80;1.00
14057;DHT22;7103;54.300;10.180;2023-02-15T14:40:58;6.60;1.00
14057;DHT22;7103;54.300;10.180;2023-02-15T14:43:33;6.60;1.00
14057;DHT22;7103;54.300;10.180;2023-02-15T14:48:51;6.60;1.00
14057;DHT22;7103;54.300;10.180;2023-02-15T14:54:07;6.40;1.00
14057;DHT22;7103;54.300;10.180;2023-02-15T14:56:34;6.40;1.00
14057;DHT22;7103;54.300;10.180;2023-02-15T14:59:20;6.30;1.00
14057;DHT22;7103;54.300;10.180;2023-02-15T15:02:03;6.30;1.00
14057;DHT22;7103;54.300;10.180;2023-02-15T15:04:41;6.30;1.00
14057;DHT22;7103;54.300;10.180;2023-02-15T15:07:19;6.50;1.00
14057;DHT22;7103;54.300;10.180;2023-02-15T15:10:00;6.30;1.00
14057;DHT22;7103;54.300;10.180;2023-02-15T15:15:03;6.30;1.00
14057;DHT22;7103;54.300;10.180;2023-02-15T15:22:41;6.30;1.00
14057;DHT22;7103;54.300;10.180;2023-02-15T15:28:05;6.30;1.00
14057;DHT22;7103;54.300;10.180;2023-02-15T15:33:25;6.20;1.00
14057;DHT22;7103;54.300;10.180;2023-02-15T15:48:05;6.00;1.00
14057;DHT22;7103;54.300;10.180;2023-02-15T15:50:40;6.10;1.00
14057;DHT22;7103;54.300;10.180;2023-02-15T15:53:18;6.10;1.00
14057;DHT22;7103;54.300;10.180;2023-02-15T15:55:48;6.10;1.00
14057;DHT22;7103;54.300;10.180;2023-02-15T15:58:17;6.30;1.00
14057;DHT22;7103;54.300;10.180;2023-02-15T16:01:51;6.00;1.00
14057;DHT22;7103;54.300;10.180;2023-02-15T16:03:51;6.00;1.00
14057;DHT22;7103;54.300;10.180;2023-02-15T16:06:35;6.00;1.00
14057;DHT22;7103;54.300;10.180;2023-02-15T16:09:20;6.00;1.00
14057;DHT22;7103;54.300;10.180;2023-02-15T16:11:52;5.90;1.00
14057;DHT22;7103;54.300;10.180;2023-02-15T16:14:28;5.90;1.00
14057;DHT22;7103;54.300;10.180;2023-02-15T16:16:59;5.90;1.00
14057;DHT22;7103;54.300;10.180;2023-02-15T16:19:34;5.80;1.00
14057;DHT22;7103;54.300;10.180;2023-02-15T16:22:02;5.90;1.00
14057;DHT22;7103;54.300;10.180;2023-02-15T16:24:55;5.90;1.00
14057;DHT22;7103;54.300;10.180;2023-02-15T16:27:33;5.90;1.00
14057;DHT22;7103;54.300;10.180;2023-02-15T16:30:37;5.90;1.00
14057;DHT22;7103;54.300;10.180;2023-02-15T16:33:12;5.90;1.00
14057;DHT22;7103;54.300;10.180;2023-02-15T16:35:41;5.80;1.00
14057;DHT22;7103;54.300;10.180;2023-02-15T16:38:38;5.80;1.00
14057;DHT22;7103;54.300;10.180;2023-02-15T16:41:19;5.80;1.00
14057;DHT22;7103;54.300;10.180;2023-02-15T16:43:49;5.80;1.00
14057;DHT22;7103;54.300;10.180;2023-02-15T16:48:58;5.80;1.00
14057;DHT22;7103;54.300;10.180;2023-02-15T16:51:31;5.70;1.00
14057;DHT22;7103;54.300;10.180;2023-02-15T16:54:17;5.70;1.00
14057;DHT22;7103;54.300;10.180;2023-02-15T16:56:45;5.90;1.00
14057;DHT22;7103;54.300;10.180;2023-02-15T16:59:28;5.70;1.00
14057;DHT22;7103;54.300;10.180;2023-02-15T17:01:56;5.70;1.00
14057;DHT22;7103;54.300;10.180;2023-02-15T17:04:31;5.70;1.00
14057;DHT22;7103;54.300;10.180;2023-02-15T17:07:05;5.70;1.00
14057;DHT22;7103;54.300;10.180;2023-02-15T17:09:33;5.70;1.00
14057;DHT22;7103;54.300;10.180;2023-02-15T17:12:00;5.70;1.00
14057;DHT22;7103;54.300;10.180;2023-02-15T17:14:37;5.70;1.00
14057;DHT22;7103;54.300;10.180;2023-02-15T17:17:14;5.70;1.00
14057;DHT22;7103;54.300;10.180;2023-02-15T17:19:50;5.70;1.00
14057;DHT22;7103;54.300;10.180;2023-02-15T17:22:25;5.70;1.00
14057;DHT22;7103;54.300;10.180;2023-02-15T17:24:59;5.70;1.00
14057;DHT22;7103;54.300;10.180;2023-02-15T17:27:30;5.70;1.00
14057;DHT22;7103;54.300;10.180;2023-02-15T17:30:13;5.60;1.00
14057;DHT22;7103;54.300;10.180;2023-02-15T17:32:59;5.60;1.00
14057;DHT22;7103;54.300;10.180;2023-02-15T17:35:28;5.50;1.00
14057;DHT22;7103;54.300;10.180;2023-02-15T17:38:03;5.60;1.00
14057;DHT22;7103;54.300;10.180;2023-02-15T17:40:35;5.60;1.00
14057;DHT22;7103;54.300;10.180;2023-02-15T17:43:02;5.60;1.00
14057;DHT22;7103;54.300;10.180;2023-02-15T17:45:36;5.50;1.00
14057;DHT22;7103;54.300;10.180;2023-02-15T17:48:05;5.50;1.00
14057;DHT22;7103;54.300;10.180;2023-02-15T17:50:33;5.50;1.00
14057;DHT22;7103;54.300;10.180;2023-02-15T17:53:00;5.50;1.00
14057;DHT22;7103;54.300;10.180;2023-02-15T17:55:27;5.50;1.00
14057;DHT22;7103;54.300;10.180;2023-02-15T17:58:03;5.60;1.00
14057;DHT22;7103;54.300;10.180;2023-02-15T18:00:30;5.50;1.00
14057;DHT22;7103;54.300;10.180;2023-02-15T18:03:16;5.50;1.00
14057;DHT22;7103;54.300;10.180;2023-02-15T18:06:02;5.40;1.00
14057;DHT22;7103;54.300;10.180;2023-02-15T18:08:48;5.50;1.00
14057;DHT22;7103;54.300;10.180;2023-02-15T18:11:33;5.50;1.00
14057;DHT22;7103;54.300;10.180;2023-02-15T18:14:09;5.50;1.00
14057;DHT22;7103;54.300;10.180;2023-02-15T18:16:41;5.50;1.00
14057;DHT22;7103;54.300;10.180;2023-02-15T18:19:16;5.40;1.00
14057;DHT22;7103;54.300;10.180;2023-02-15T18:21:44;5.40;1.00
14057;DHT22;7103;54.300;10.180;2023-02-15T18:24:23;5.40;1.00
14057;DHT22;7103;54.300;10.180;2023-02-15T18:26:51;5.40;1.00
14057;DHT22;7103;54.300;10.180;2023-02-15T18:29:19;5.30;1.00
14057;DHT22;7103;54.300;10.180;2023-02-15T18:31:51;5.30;1.00
14057;DHT22;7103;54.300;10.180;2023-02-15T18:34:28;5.20;1.00
14057;DHT22;7103;54.300;10.180;2023-02-15T18:36:57;5.20;1.00
14057;DHT22;7103;54.300;10.180;2023-02-15T18:39:37;5.20;1.00
14057;DHT22;7103;54.300;10.180;2023-02-15T18:42:19;5.20;1.00
14057;DHT22;7103;54.300;10.180;2023-02-15T18:44:46;5.20;1.00
14057;DHT22;7103;54.300;10.180;2023-02-15T18:47:13;5.20;1.00
14057;DHT22;7103;54.300;10.180;2023-02-15T18:49:40;5.20;1.00
14057;DHT22;7103;54.300;10.180;2023-02-15T18:52:17;5.10;1.00
14057;DHT22;7103;54.300;10.180;2023-02-15T18:54:46;5.10;1.00
14057;DHT22;7103;54.300;10.180;2023-02-15T18:57:14;5.10;1.00
14057;DHT22;7103;54.300;10.180;2023-02-15T18:59:41;5.10;1.00
14057;DHT22;7103;54.300;10.180;2023-02-15T19:02:16;5.10;1.00
14057;DHT22;7103;54.300;10.180;2023-02-15T19:04:44;5.00;1.00
14057;DHT22;7103;54.300;10.180;2023-02-15T19:07:32;5.10;1.00
14057;DHT22;7103;54.300;10.180;2023-02-15T19:10:01;5.10;1.00
14057;DHT22;7103;54.300;10.180;2023-02-15T19:12:30;5.10;1.00
14057;DHT22;7103;54.300;10.180;2023-02-15T19:14:57;5.20;1.00
14057;DHT22;7103;54.300;10.180;2023-02-15T19:17:24;5.10;1.00
14057;DHT22;7103;54.300;10.180;2023-02-15T19:19:51;5.10;1.00
14057;DHT22;7103;54.300;10.180;2023-02-15T19:22:20;5.10;1.00
14057;DHT22;7103;54.300;10.180;2023-02-15T19:24:50;5.00;1.00
14057;DHT22;7103;54.300;10.180;2023-02-15T19:27:29;4.90;1.00
14057;DHT22;7103;54.300;10.180;2023-02-15T19:29:58;5.00;1.00
14057;DHT22;7103;54.300;10.180;2023-02-15T19:32:26;5.00;1.00
14057;DHT22;7103;54.300;10.180;2023-02-15T19:34:53;4.90;1.00